sensor_id;sensor_type;location;lat;lon;timestamp;temperature;humidity
16627;DHT22;8427;52.204;7.202;2023-03-01T00:01:17;-3274.20;76.10
16627;DHT22;8427;52.204;7.202;2023-03-01T00:03:46;-3274.00;76.50
16627;DHT22;8427;52.204;7.202;2023-03-01T00:06:14;-3274.30;76.70
16627;DHT22;8427;52.204;7.202;2023-03-01T00:08:42;-3274.20;76.80
16627;DHT22;8427;52.204;7.202;2023-03-01T00:11:13;-3274.10;77.10
16627;DHT22;8427;52.204;7.202;2023-03-01T00:13:42;-3274.00;77.00
16627;DHT22;8427;52.204;7.202;2023-03-01T00:16:14;-3274.00;76.90
16627;DHT22;8427;52.204;7.202;2023-03-01T00:18:42;-3274.00;76.70
16627;DHT22;8427;52.204;7.202;2023-03-01T00:21:11;-3274.10;76.70
16627;DHT22;8427;52.204;7.202;2023-03-01T00:23:39;-3274.00;77.20
16627;DHT22;8427;52.204;7.202;2023-03-01T00:26:08;-3274.00;77.50
16627;DHT22;8427;52.204;7.202;2023-03-01T00:28:37;-3273.90;77.40
16627;DHT22;8427;52.204;7.202;2023-03-01T00:31:05;-3274.00;77.50
16627;DHT22;8427;52.204;7.202;2023-03-01T00:33:35;-3273.90;78.40
16627;DHT22;8427;52.204;7.202;2023-03-01T00:36:04;-3273.90;78.40
16627;DHT22;8427;52.204;7.202;2023-03-01T00:38:35;-3273.90;78.30
16627;DHT22;8427;52.204;7.202;2023-03-01T00:41:04;-3273.90;78.30
16627;DHT22;8427;52.204;7.202;2023-03-01T00:43:33;-3273.80;78.60
16627;DHT22;8427;52.204;7.202;2023-03-01T00:46:03;-3273.70;78.80
16627;DHT22;8427;52.204;7.202;2023-03-01T00:48:32;-3273.70;78.50
16627;DHT22;8427;52.204;7.202;2023-03-01T00:51:06;-3273.70;78.10
16627;DHT22;8427;52.204;7.202;2023-03-01T00:53:35;-3273.70;77.80
16627;DHT22;8427;52.204;7.202;2023-03-01T00:56:04;-3273.70;78.10
16627;DHT22;8427;52.204;7.202;2023-03-01T00:58:33;-3273.70;78.70
16627;DHT22;8427;52.204;7.202;2023-03-01T01:01:07;-3273.70;79.20
16627;DHT22;8427;52.204;7.202;2023-03-01T01:03:45;-3273.70;79.40
16627;DHT22;8427;52.204;7.202;2023-03-01T01:06:16;-3273.60;79.10
16627;DHT22;8427;52.204;7.202;2023-03-01T01:08:44;-3273.60;79.20
16627;DHT22;8427;52.204;7.202;2023-03-01T01:11:13;-3273.60;79.00
16627;DHT22;8427;52.204;7.202;2023-03-01T01:13:41;-3273.50;78.60
16627;DHT22;8427;52.204;7.202;2023-03-01T01:16:09;-3273.60;78.80
16627;DHT22;8427;52.204;7.202;2023-03-01T01:18:37;-3273.60;78.70
16627;DHT22;8427;52.204;7.202;2023-03-01T01:21:07;-3273.60;78.40
16627;DHT22;8427;52.204;7.202;2023-03-01T01:23:37;-3273.60;78.50
16627;DHT22;8427;52.204;7.202;2023-03-01T01:26:06;-3273.60;78.50
16627;DHT22;8427;52.204;7.202;2023-03-01T01:28:34;-3273.50;78.50
16627;DHT22;8427;52.204;7.202;2023-03-01T01:31:02;-3273.50;78.10
16627;DHT22;8427;52.204;7.202;2023-03-01T01:33:31;-3273.50;78.50
16627;DHT22;8427;52.204;7.202;2023-03-01T01:35:59;-3273.50;78.60
16627;DHT22;8427;52.204;7.202;2023-03-01T01:38:27;-3273.50;78.60
16627;DHT22;8427;52.204;7.202;2023-03-01T01:40:56;-3273.50;78.50
16627;DHT22;8427;52.204;7.202;2023-03-01T01:43:26;-3273.50;78.60
16627;DHT22;8427;52.204;7.202;2023-03-01T01:45:55;-3273.50;78.60
16627;DHT22;8427;52.204;7.202;2023-03-01T01:48:28;-3273.50;78.80
16627;DHT22;8427;52.204;7.202;2023-03-01T01:51:08;-3273.50;78.90
16627;DHT22;8427;52.204;7.202;2023-03-01T01:53:38;-3273.40;78.70
16627;DHT22;8427;52.204;7.202;2023-03-01T01:56:12;-3273.40;78.60
16627;DHT22;8427;52.204;7.202;2023-03-01T01:58:41;-3273.40;78.60
16627;DHT22;8427;52.204;7.202;2023-03-01T02:01:10;-3273.40;78.70
16627;DHT22;8427;52.204;7.202;2023-03-01T02:03:40;-3273.40;78.80
16627;DHT22;8427;52.204;7.202;2023-03-01T02:06:15;-3273.40;78.90
16627;DHT22;8427;52.204;7.202;2023-03-01T02:08:47;-3273.30;79.40
16627;DHT22;8427;52.204;7.202;2023-03-01T02:11:17;-3273.30;79.60
16627;DHT22;8427;52.204;7.202;2023-03-01T02:13:47;-3273.30;80.20
16627;DHT22;8427;52.204;7.202;2023-03-01T02:16:15;-3273.30;79.80
16627;DHT22;8427;52.204;7.202;2023-03-01T02:18:44;-3273.20;79.50
16627;DHT22;8427;52.204;7.202;2023-03-01T02:21:23;-3273.30;79.40
16627;DHT22;8427;52.204;7.202;2023-03-01T02:23:53;-3273.10;79.60
16627;DHT22;8427;52.204;7.202;2023-03-01T02:26:30;-3273.20;79.60
16627;DHT22;8427;52.204;7.202;2023-03-01T02:29:04;-3273.20;79.40
16627;DHT22;8427;52.204;7.202;2023-03-01T02:31:33;-3273.20;79.20
16627;DHT22;8427;52.204;7.202;2023-03-01T02:34:13;-3273.10;79.40
16627;DHT22;8427;52.204;7.202;2023-03-01T02:36:44;-3273.10;79.40
16627;DHT22;8427;52.204;7.202;2023-03-01T02:39:15;-3273.10;79.40
16627;DHT22;8427;52.204;7.202;2023-03-01T02:41:47;-3273.10;79.30
16627;DHT22;8427;52.204;7.202;2023-03-01T02:44:17;-3273.00;79.30
16627;DHT22;8427;52.204;7.202;2023-03-01T02:46:47;-3273.10;79.30
16627;DHT22;8427;52.204;7.202;2023-03-01T02:49:25;-3273.10;79.50
16627;DHT22;8427;52.204;7.202;2023-03-01T02:52:06;-3273.10;79.80
16627;DHT22;8427;52.204;7.202;2023-03-01T02:54:40;-3273.20;79.40
16627;DHT22;8427;52.204;7.202;2023-03-01T02:57:09;-3273.20;79.50
16627;DHT22;8427;52.204;7.202;2023-03-01T02:59:39;-3273.10;79.40
16627;DHT22;8427;52.204;7.202;2023-03-01T03:02:19;-3273.10;79.30
16627;DHT22;8427;52.204;7.202;2023-03-01T03:05:05;-3273.00;79.50
16627;DHT22;8427;52.204;7.202;2023-03-01T03:07:35;-3273.10;79.50
16627;DHT22;8427;52.204;7.202;2023-03-01T03:10:06;-3273.10;79.70
16627;DHT22;8427;52.204;7.202;2023-03-01T03:12:34;-3273.00;79.40
16627;DHT22;8427;52.204;7.202;2023-03-01T03:15:04;-3273.10;79.60
16627;DHT22;8427;52.204;7.202;2023-03-01T03:17:35;-3273.00;79.40
16627;DHT22;8427;52.204;7.202;2023-03-01T03:20:05;-3273.00;79.70
16627;DHT22;8427;52.204;7.202;2023-03-01T03:22:37;-3273.00;79.90
16627;DHT22;8427;52.204;7.202;2023-03-01T03:25:06;-3273.10;79.90
16627;DHT22;8427;52.204;7.202;2023-03-01T03:27:37;-3273.00;79.90
16627;DHT22;8427;52.204;7.202;2023-03-01T03:30:08;-3273.00;80.30
16627;DHT22;8427;52.204;7.202;2023-03-01T03:32:40;-3273.00;80.20
16627;DHT22;8427;52.204;7.202;2023-03-01T03:35:09;-3273.00;80.10
16627;DHT22;8427;52.204;7.202;2023-03-01T03:37:38;-3273.00;80.30
16627;DHT22;8427;52.204;7.202;2023-03-01T03:40:23;-3273.00;80.10
16627;DHT22;8427;52.204;7.202;2023-03-01T03:42:51;-3273.00;79.70
16627;DHT22;8427;52.204;7.202;2023-03-01T03:45:20;-3272.90;79.80
16627;DHT22;8427;52.204;7.202;2023-03-01T03:47:48;-3272.90;79.60
16627;DHT22;8427;52.204;7.202;2023-03-01T03:50:17;-3273.00;79.70
16627;DHT22;8427;52.204;7.202;2023-03-01T03:52:45;-3273.00;79.90
16627;DHT22;8427;52.204;7.202;2023-03-01T03:55:13;-3272.90;79.70
16627;DHT22;8427;52.204;7.202;2023-03-01T03:57:46;-3272.90;79.50
16627;DHT22;8427;52.204;7.202;2023-03-01T04:00:21;-3272.90;79.60
16627;DHT22;8427;52.204;7.202;2023-03-01T04:02:50;-3272.90;79.70
16627;DHT22;8427;52.204;7.202;2023-03-01T04:05:23;-3272.90;79.80
16627;DHT22;8427;52.204;7.202;2023-03-01T04:07:51;-3273.00;79.90
16627;DHT22;8427;52.204;7.202;2023-03-01T04:10:28;-3273.00;79.90
16627;DHT22;8427;52.204;7.202;2023-03-01T04:12:56;-3272.90;79.80
16627;DHT22;8427;52.204;7.202;2023-03-01T04:15:26;-3272.90;79.70
16627;DHT22;8427;52.204;7.202;2023-03-01T04:17:55;-3272.90;79.80
16627;DHT22;8427;52.204;7.202;2023-03-01T04:20:25;-3273.00;79.70
16627;DHT22;8427;52.204;7.202;2023-03-01T04:22:58;-3272.90;79.90
16627;DHT22;8427;52.204;7.202;2023-03-01T04:25:26;-3272.90;79.80
16627;DHT22;8427;52.204;7.202;2023-03-01T04:27:54;-3272.90;79.90
16627;DHT22;8427;52.204;7.202;2023-03-01T04:30:22;-3272.90;80.10
16627;DHT22;8427;52.204;7.202;2023-03-01T04:32:53;-3272.90;80.10
16627;DHT22;8427;52.204;7.202;2023-03-01T04:35:21;-3272.80;80.00
16627;DHT22;8427;52.204;7.202;2023-03-01T04:37:49;-3272.70;80.00
16627;DHT22;8427;52.204;7.202;2023-03-01T04:40:17;-3272.80;80.10
16627;DHT22;8427;52.204;7.202;2023-03-01T04:42:45;-3272.80;80.20
16627;DHT22;8427;52.204;7.202;2023-03-01T04:45:13;-3272.70;80.20
16627;DHT22;8427;52.204;7.202;2023-03-01T04:47:43;-3272.80;80.10
16627;DHT22;8427;52.204;7.202;2023-03-01T04:50:15;-3272.80;80.20
16627;DHT22;8427;52.204;7.202;2023-03-01T04:52:44;-3272.70;80.30
16627;DHT22;8427;52.204;7.202;2023-03-01T04:55:13;-3272.70;80.30
16627;DHT22;8427;52.204;7.202;2023-03-01T04:57:41;-3272.70;80.50
16627;DHT22;8427;52.204;7.202;2023-03-01T05:00:12;-3272.70;80.40
16627;DHT22;8427;52.204;7.202;2023-03-01T05:02:48;-3272.70;80.60
16627;DHT22;8427;52.204;7.202;2023-03-01T05:05:26;-3272.70;80.80
16627;DHT22;8427;52.204;7.202;2023-03-01T05:07:55;-3272.70;81.00
16627;DHT22;8427;52.204;7.202;2023-03-01T05:10:24;-3272.70;81.30
16627;DHT22;8427;52.204;7.202;2023-03-01T05:12:52;-3272.60;81.30
16627;DHT22;8427;52.204;7.202;2023-03-01T05:15:20;-3272.50;81.50
16627;DHT22;8427;52.204;7.202;2023-03-01T05:17:52;-3272.60;81.70
16627;DHT22;8427;52.204;7.202;2023-03-01T05:20:22;-3272.50;82.00
16627;DHT22;8427;52.204;7.202;2023-03-01T05:22:50;-3272.50;81.80
16627;DHT22;8427;52.204;7.202;2023-03-01T05:25:18;-3272.50;81.50
16627;DHT22;8427;52.204;7.202;2023-03-01T05:27:48;-3272.50;81.50
16627;DHT22;8427;52.204;7.202;2023-03-01T05:30:16;-3272.50;81.30
16627;DHT22;8427;52.204;7.202;2023-03-01T05:32:45;-3272.40;81.10
16627;DHT22;8427;52.204;7.202;2023-03-01T05:35:16;-3272.50;81.20
16627;DHT22;8427;52.204;7.202;2023-03-01T05:37:47;-3272.40;81.40
16627;DHT22;8427;52.204;7.202;2023-03-01T05:40:18;-3272.50;81.20
16627;DHT22;8427;52.204;7.202;2023-03-01T05:42:48;-3272.50;81.20
16627;DHT22;8427;52.204;7.202;2023-03-01T05:45:17;-3272.40;81.50
16627;DHT22;8427;52.204;7.202;2023-03-01T05:47:48;-3272.40;81.90
16627;DHT22;8427;52.204;7.202;2023-03-01T05:50:17;-3272.50;82.30
16627;DHT22;8427;52.204;7.202;2023-03-01T05:52:49;-3272.50;82.10
16627;DHT22;8427;52.204;7.202;2023-03-01T05:55:19;-3272.50;82.00
16627;DHT22;8427;52.204;7.202;2023-03-01T05:57:48;-3272.50;82.00
16627;DHT22;8427;52.204;7.202;2023-03-01T06:00:18;-3272.50;82.00
16627;DHT22;8427;52.204;7.202;2023-03-01T06:02:46;-3272.40;82.10
16627;DHT22;8427;52.204;7.202;2023-03-01T06:05:15;-3272.30;82.20
16627;DHT22;8427;52.204;7.202;2023-03-01T06:07:43;-3272.50;82.20
16627;DHT22;8427;52.204;7.202;2023-03-01T06:10:13;-3272.30;82.20
16627;DHT22;8427;52.204;7.202;2023-03-01T06:12:42;-3272.40;82.10
16627;DHT22;8427;52.204;7.202;2023-03-01T06:15:11;-3272.40;82.10
16627;DHT22;8427;52.204;7.202;2023-03-01T06:17:41;-3272.30;82.40
16627;DHT22;8427;52.204;7.202;2023-03-01T06:20:11;-3272.30;82.40
16627;DHT22;8427;52.204;7.202;2023-03-01T06:22:41;-3272.30;82.70
16627;DHT22;8427;52.204;7.202;2023-03-01T06:25:10;-3272.30;82.80
16627;DHT22;8427;52.204;7.202;2023-03-01T06:27:41;-3272.30;82.80
16627;DHT22;8427;52.204;7.202;2023-03-01T06:30:11;-3272.30;83.00
16627;DHT22;8427;52.204;7.202;2023-03-01T06:32:40;-3272.30;83.10
16627;DHT22;8427;52.204;7.202;2023-03-01T06:35:10;-3272.20;83.30
16627;DHT22;8427;52.204;7.202;2023-03-01T06:37:39;-3272.30;83.60
16627;DHT22;8427;52.204;7.202;2023-03-01T06:40:09;-3272.30;83.70
16627;DHT22;8427;52.204;7.202;2023-03-01T06:42:41;-3272.30;83.60
16627;DHT22;8427;52.204;7.202;2023-03-01T06:45:11;-3272.40;83.30
16627;DHT22;8427;52.204;7.202;2023-03-01T06:47:39;-3272.30;83.20
16627;DHT22;8427;52.204;7.202;2023-03-01T06:50:08;-3272.30;83.10
16627;DHT22;8427;52.204;7.202;2023-03-01T06:52:36;-3272.40;83.10
16627;DHT22;8427;52.204;7.202;2023-03-01T06:55:05;-3272.40;83.10
16627;DHT22;8427;52.204;7.202;2023-03-01T06:57:33;-3272.40;83.50
16627;DHT22;8427;52.204;7.202;2023-03-01T07:00:03;-3272.50;83.70
16627;DHT22;8427;52.204;7.202;2023-03-01T07:02:31;-3272.50;83.70
16627;DHT22;8427;52.204;7.202;2023-03-01T07:04:59;-3272.50;83.90
16627;DHT22;8427;52.204;7.202;2023-03-01T07:07:27;-3272.50;83.80
16627;DHT22;8427;52.204;7.202;2023-03-01T07:09:55;-3272.50;83.90
16627;DHT22;8427;52.204;7.202;2023-03-01T07:12:22;-3272.70;84.00
16627;DHT22;8427;52.204;7.202;2023-03-01T07:14:50;-3272.70;84.20
16627;DHT22;8427;52.204;7.202;2023-03-01T07:17:19;-3272.80;83.90
16627;DHT22;8427;52.204;7.202;2023-03-01T07:19:47;-3272.90;83.50
16627;DHT22;8427;52.204;7.202;2023-03-01T07:22:15;-3272.90;83.30
16627;DHT22;8427;52.204;7.202;2023-03-01T07:24:43;-3273.00;83.10
16627;DHT22;8427;52.204;7.202;2023-03-01T07:27:11;-3273.00;83.10
16627;DHT22;8427;52.204;7.202;2023-03-01T07:29:39;-3273.10;83.10
16627;DHT22;8427;52.204;7.202;2023-03-01T07:32:07;-3273.10;82.70
16627;DHT22;8427;52.204;7.202;2023-03-01T07:34:36;-3273.10;82.60
16627;DHT22;8427;52.204;7.202;2023-03-01T07:37:04;-3273.20;83.10
16627;DHT22;8427;52.204;7.202;2023-03-01T07:39:32;-3273.40;83.20
16627;DHT22;8427;52.204;7.202;2023-03-01T07:42:00;-3273.40;83.30
16627;DHT22;8427;52.204;7.202;2023-03-01T07:44:27;-3273.50;82.80
16627;DHT22;8427;52.204;7.202;2023-03-01T07:46:55;-3273.60;82.00
16627;DHT22;8427;52.204;7.202;2023-03-01T07:49:24;-3273.70;81.70
16627;DHT22;8427;52.204;7.202;2023-03-01T07:51:55;-3273.90;81.40
16627;DHT22;8427;52.204;7.202;2023-03-01T07:54:23;-3274.00;81.30
16627;DHT22;8427;52.204;7.202;2023-03-01T07:56:50;-3274.20;81.00
16627;DHT22;8427;52.204;7.202;2023-03-01T07:59:18;-3274.30;80.90
16627;DHT22;8427;52.204;7.202;2023-03-01T08:01:46;-3274.40;80.50
16627;DHT22;8427;52.204;7.202;2023-03-01T08:04:14;-3274.40;80.20
16627;DHT22;8427;52.204;7.202;2023-03-01T08:06:42;-3274.50;80.20
16627;DHT22;8427;52.204;7.202;2023-03-01T08:09:11;-3274.80;80.00
16627;DHT22;8427;52.204;7.202;2023-03-01T08:11:39;-3274.90;79.50
16627;DHT22;8427;52.204;7.202;2023-03-01T08:14:07;-3275.10;79.30
16627;DHT22;8427;52.204;7.202;2023-03-01T08:16:35;-3275.30;78.50
16627;DHT22;8427;52.204;7.202;2023-03-01T08:19:06;-3275.40;78.10
16627;DHT22;8427;52.204;7.202;2023-03-01T08:21:34;-3275.30;77.90
16627;DHT22;8427;52.204;7.202;2023-03-01T08:24:03;-3275.60;77.40
16627;DHT22;8427;52.204;7.202;2023-03-01T08:26:33;-3275.60;76.60
16627;DHT22;8427;52.204;7.202;2023-03-01T08:29:01;-3275.80;76.40
16627;DHT22;8427;52.204;7.202;2023-03-01T08:31:31;-3275.90;76.20
16627;DHT22;8427;52.204;7.202;2023-03-01T08:34:01;-3275.90;76.30
16627;DHT22;8427;52.204;7.202;2023-03-01T08:36:30;-3276.20;75.50
16627;DHT22;8427;52.204;7.202;2023-03-01T08:38:59;-3276.10;75.70
16627;DHT22;8427;52.204;7.202;2023-03-01T08:41:27;-3276.20;74.90
16627;DHT22;8427;52.204;7.202;2023-03-01T08:43:57;-3276.40;75.80
16627;DHT22;8427;52.204;7.202;2023-03-01T08:46:26;-3276.40;75.60
16627;DHT22;8427;52.204;7.202;2023-03-01T08:48:54;-3276.60;74.60
16627;DHT22;8427;52.204;7.202;2023-03-01T08:51:23;-3276.60;73.90
16627;DHT22;8427;52.204;7.202;2023-03-01T08:53:51;-3276.70;73.50
16627;DHT22;8427;52.204;7.202;2023-03-01T08:56:19;0.00;73.50
16627;DHT22;8427;52.204;7.202;2023-03-01T08:58:48;0.00;74.20
16627;DHT22;8427;52.204;7.202;2023-03-01T09:01:18;0.10;73.50
16627;DHT22;8427;52.204;7.202;2023-03-01T09:03:46;0.40;73.40
16627;DHT22;8427;52.204;7.202;2023-03-01T09:06:15;0.40;74.10
16627;DHT22;8427;52.204;7.202;2023-03-01T09:08:45;0.50;72.60
16627;DHT22;8427;52.204;7.202;2023-03-01T09:11:15;0.70;72.20
16627;DHT22;8427;52.204;7.202;2023-03-01T09:13:43;0.70;71.10
16627;DHT22;8427;52.204;7.202;2023-03-01T09:16:13;0.70;70.80
16627;DHT22;8427;52.204;7.202;2023-03-01T09:18:42;0.90;69.10
16627;DHT22;8427;52.204;7.202;2023-03-01T09:21:12;1.30;68.80
16627;DHT22;8427;52.204;7.202;2023-03-01T09:23:43;1.20;68.50
16627;DHT22;8427;52.204;7.202;2023-03-01T09:26:13;1.40;68.20
16627;DHT22;8427;52.204;7.202;2023-03-01T09:28:43;1.60;67.00
16627;DHT22;8427;52.204;7.202;2023-03-01T09:31:12;1.40;66.60
16627;DHT22;8427;52.204;7.202;2023-03-01T09:33:42;1.70;65.70
16627;DHT22;8427;52.204;7.202;2023-03-01T09:36:13;1.70;65.30
16627;DHT22;8427;52.204;7.202;2023-03-01T09:38:41;1.80;63.90
16627;DHT22;8427;52.204;7.202;2023-03-01T09:41:10;1.80;64.00
16627;DHT22;8427;52.204;7.202;2023-03-01T09:43:45;2.00;64.10
16627;DHT22;8427;52.204;7.202;2023-03-01T09:46:15;2.00;59.60
16627;DHT22;8427;52.204;7.202;2023-03-01T09:48:48;2.00;59.00
16627;DHT22;8427;52.204;7.202;2023-03-01T09:51:22;2.20;58.00
16627;DHT22;8427;52.204;7.202;2023-03-01T09:53:51;2.40;56.70
16627;DHT22;8427;52.204;7.202;2023-03-01T09:56:24;2.50;56.50
16627;DHT22;8427;52.204;7.202;2023-03-01T09:58:58;2.20;55.70
16627;DHT22;8427;52.204;7.202;2023-03-01T10:01:33;2.40;55.70
16627;DHT22;8427;52.204;7.202;2023-03-01T10:04:12;2.40;56.50
16627;DHT22;8427;52.204;7.202;2023-03-01T10:06:51;2.50;56.40
16627;DHT22;8427;52.204;7.202;2023-03-01T10:09:23;2.60;55.40
16627;DHT22;8427;52.204;7.202;2023-03-01T10:11:54;2.60;55.90
16627;DHT22;8427;52.204;7.202;2023-03-01T10:14:30;2.50;56.30
16627;DHT22;8427;52.204;7.202;2023-03-01T10:17:02;2.70;56.10
16627;DHT22;8427;52.204;7.202;2023-03-01T10:19:36;2.90;56.00
16627;DHT22;8427;52.204;7.202;2023-03-01T10:22:13;2.80;55.80
16627;DHT22;8427;52.204;7.202;2023-03-01T10:24:42;3.00;56.30
16627;DHT22;8427;52.204;7.202;2023-03-01T10:27:14;2.90;55.80
16627;DHT22;8427;52.204;7.202;2023-03-01T10:29:49;2.80;56.40
16627;DHT22;8427;52.204;7.202;2023-03-01T10:32:18;3.00;54.60
16627;DHT22;8427;52.204;7.202;2023-03-01T10:34:52;3.10;53.00
16627;DHT22;8427;52.204;7.202;2023-03-01T10:37:21;3.10;53.10
16627;DHT22;8427;52.204;7.202;2023-03-01T10:39:56;3.40;52.70
16627;DHT22;8427;52.204;7.202;2023-03-01T10:42:27;3.30;53.30
16627;DHT22;8427;52.204;7.202;2023-03-01T10:44:57;3.40;52.70
16627;DHT22;8427;52.204;7.202;2023-03-01T10:47:26;3.50;52.00
16627;DHT22;8427;52.204;7.202;2023-03-01T10:49:59;3.40;52.40
16627;DHT22;8427;52.204;7.202;2023-03-01T10:52:32;3.60;50.30
16627;DHT22;8427;52.204;7.202;2023-03-01T10:55:03;3.50;51.40
16627;DHT22;8427;52.204;7.202;2023-03-01T10:57:38;3.50;51.10
16627;DHT22;8427;52.204;7.202;2023-03-01T11:00:29;3.70;51.90
16627;DHT22;8427;52.204;7.202;2023-03-01T11:03:12;3.80;50.70
16627;DHT22;8427;52.204;7.202;2023-03-01T11:05:57;4.00;50.70
16627;DHT22;8427;52.204;7.202;2023-03-01T11:08:40;3.90;50.30
16627;DHT22;8427;52.204;7.202;2023-03-01T11:11:33;4.00;51.60
16627;DHT22;8427;52.204;7.202;2023-03-01T11:14:06;3.80;49.10
16627;DHT22;8427;52.204;7.202;2023-03-01T11:16:59;4.00;48.90
16627;DHT22;8427;52.204;7.202;2023-03-01T11:19:28;3.90;47.70
16627;DHT22;8427;52.204;7.202;2023-03-01T11:22:02;4.10;47.70
16627;DHT22;8427;52.204;7.202;2023-03-01T11:24:41;4.20;46.50
16627;DHT22;8427;52.204;7.202;2023-03-01T11:27:18;4.10;47.00
16627;DHT22;8427;52.204;7.202;2023-03-01T11:29:51;4.20;46.60
16627;DHT22;8427;52.204;7.202;2023-03-01T11:32:24;4.20;46.20
16627;DHT22;8427;52.204;7.202;2023-03-01T11:34:56;4.30;48.00
16627;DHT22;8427;52.204;7.202;2023-03-01T11:37:34;4.40;47.50
16627;DHT22;8427;52.204;7.202;2023-03-01T11:40:13;4.80;48.40
16627;DHT22;8427;52.204;7.202;2023-03-01T11:42:55;4.70;49.10
16627;DHT22;8427;52.204;7.202;2023-03-01T11:45:30;5.10;48.00
16627;DHT22;8427;52.204;7.202;2023-03-01T11:48:13;4.80;47.00
16627;DHT22;8427;52.204;7.202;2023-03-01T11:50:46;4.70;49.10
16627;DHT22;8427;52.204;7.202;2023-03-01T11:53:27;4.70;50.20
16627;DHT22;8427;52.204;7.202;2023-03-01T11:56:05;5.10;49.60
16627;DHT22;8427;52.204;7.202;2023-03-01T11:58:49;5.00;48.60
16627;DHT22;8427;52.204;7.202;2023-03-01T12:01:30;5.00;50.20
16627;DHT22;8427;52.204;7.202;2023-03-01T12:04:18;5.10;50.20
16627;DHT22;8427;52.204;7.202;2023-03-01T12:06:56;5.10;49.00
16627;DHT22;8427;52.204;7.202;2023-03-01T12:09:38;5.20;46.00
16627;DHT22;8427;52.204;7.202;2023-03-01T12:12:29;5.30;46.80
16627;DHT22;8427;52.204;7.202;2023-03-01T12:15:28;5.10;47.20
16627;DHT22;8427;52.204;7.202;2023-03-01T12:18:07;5.10;46.60
16627;DHT22;8427;52.204;7.202;2023-03-01T12:20:47;5.00;47.70
16627;DHT22;8427;52.204;7.202;2023-03-01T12:23:35;5.00;48.70
16627;DHT22;8427;52.204;7.202;2023-03-01T12:26:09;5.10;49.60
16627;DHT22;8427;52.204;7.202;2023-03-01T12:29:15;5.20;50.20
16627;DHT22;8427;52.204;7.202;2023-03-01T12:32:06;5.50;50.10
16627;DHT22;8427;52.204;7.202;2023-03-01T12:34:49;5.50;48.00
16627;DHT22;8427;52.204;7.202;2023-03-01T12:37:31;5.40;46.20
16627;DHT22;8427;52.204;7.202;2023-03-01T12:40:19;5.40;46.20
16627;DHT22;8427;52.204;7.202;2023-03-01T12:42:58;5.40;46.80
16627;DHT22;8427;52.204;7.202;2023-03-01T12:45:39;5.60;45.30
16627;DHT22;8427;52.204;7.202;2023-03-01T12:48:30;5.60;44.00
16627;DHT22;8427;52.204;7.202;2023-03-01T12:51:02;5.80;43.70
16627;DHT22;8427;52.204;7.202;2023-03-01T12:53:34;6.00;42.20
16627;DHT22;8427;52.204;7.202;2023-03-01T12:56:06;5.90;41.20
16627;DHT22;8427;52.204;7.202;2023-03-01T12:58:41;6.00;44.30
16627;DHT22;8427;52.204;7.202;2023-03-01T13:01:22;6.00;44.90
16627;DHT22;8427;52.204;7.202;2023-03-01T13:04:06;6.10;44.50
16627;DHT22;8427;52.204;7.202;2023-03-01T13:06:43;6.10;44.70
16627;DHT22;8427;52.204;7.202;2023-03-01T13:09:22;6.30;45.10
16627;DHT22;8427;52.204;7.202;2023-03-01T13:11:52;6.10;44.40
16627;DHT22;8427;52.204;7.202;2023-03-01T13:14:46;6.10;44.10
16627;DHT22;8427;52.204;7.202;2023-03-01T13:17:44;6.00;44.30
16627;DHT22;8427;52.204;7.202;2023-03-01T13:20:17;6.00;44.50
16627;DHT22;8427;52.204;7.202;2023-03-01T13:22:47;6.20;44.00
16627;DHT22;8427;52.204;7.202;2023-03-01T13:25:27;6.00;44.20
16627;DHT22;8427;52.204;7.202;2023-03-01T13:28:42;6.30;44.60
16627;DHT22;8427;52.204;7.202;2023-03-01T13:34:41;6.20;43.50
16627;DHT22;8427;52.204;7.202;2023-03-01T13:37:10;6.00;43.00
16627;DHT22;8427;52.204;7.202;2023-03-01T13:39:39;6.10;42.60
16627;DHT22;8427;52.204;7.202;2023-03-01T13:42:37;5.90;43.50
16627;DHT22;8427;52.204;7.202;2023-03-01T13:45:21;6.20;44.00
16627;DHT22;8427;52.204;7.202;2023-03-01T13:47:53;6.00;43.70
16627;DHT22;8427;52.204;7.202;2023-03-01T13:50:28;6.10;45.20
16627;DHT22;8427;52.204;7.202;2023-03-01T13:52:59;6.00;45.90
16627;DHT22;8427;52.204;7.202;2023-03-01T13:55:36;6.50;44.70
16627;DHT22;8427;52.204;7.202;2023-03-01T13:58:16;6.40;45.90
16627;DHT22;8427;52.204;7.202;2023-03-01T14:00:46;6.50;45.10
16627;DHT22;8427;52.204;7.202;2023-03-01T14:03:16;6.40;45.40
16627;DHT22;8427;52.204;7.202;2023-03-01T14:05:59;6.50;43.80
16627;DHT22;8427;52.204;7.202;2023-03-01T14:08:40;6.30;44.50
16627;DHT22;8427;52.204;7.202;2023-03-01T14:11:50;6.50;44.30
16627;DHT22;8427;52.204;7.202;2023-03-01T14:17:37;6.50;46.10
16627;DHT22;8427;52.204;7.202;2023-03-01T14:20:12;6.50;45.30
16627;DHT22;8427;52.204;7.202;2023-03-01T14:22:44;6.40;44.30
16627;DHT22;8427;52.204;7.202;2023-03-01T14:25:20;6.40;43.80
16627;DHT22;8427;52.204;7.202;2023-03-01T14:27:59;6.70;45.50
16627;DHT22;8427;52.204;7.202;2023-03-01T14:30:34;6.50;44.60
16627;DHT22;8427;52.204;7.202;2023-03-01T14:33:04;6.30;43.00
16627;DHT22;8427;52.204;7.202;2023-03-01T14:35:35;6.40;44.10
16627;DHT22;8427;52.204;7.202;2023-03-01T14:38:04;6.30;45.00
16627;DHT22;8427;52.204;7.202;2023-03-01T14:40:34;6.20;43.90
16627;DHT22;8427;52.204;7.202;2023-03-01T14:43:10;6.20;45.30
16627;DHT22;8427;52.204;7.202;2023-03-01T14:45:38;6.20;44.90
16627;DHT22;8427;52.204;7.202;2023-03-01T14:48:07;6.30;44.80
16627;DHT22;8427;52.204;7.202;2023-03-01T14:50:40;6.10;44.80
16627;DHT22;8427;52.204;7.202;2023-03-01T14:53:17;6.00;45.80
16627;DHT22;8427;52.204;7.202;2023-03-01T14:55:47;6.30;45.90
16627;DHT22;8427;52.204;7.202;2023-03-01T14:58:19;6.30;44.60
16627;DHT22;8427;52.204;7.202;2023-03-01T15:00:50;6.20;44.40
16627;DHT22;8427;52.204;7.202;2023-03-01T15:03:25;6.20;44.70
16627;DHT22;8427;52.204;7.202;2023-03-01T15:05:53;6.00;46.30
16627;DHT22;8427;52.204;7.202;2023-03-01T15:08:24;6.10;45.00
16627;DHT22;8427;52.204;7.202;2023-03-01T15:11:02;6.00;46.60
16627;DHT22;8427;52.204;7.202;2023-03-01T15:13:34;6.20;45.90
16627;DHT22;8427;52.204;7.202;2023-03-01T15:16:05;6.10;44.90
16627;DHT22;8427;52.204;7.202;2023-03-01T15:18:35;6.00;43.30
16627;DHT22;8427;52.204;7.202;2023-03-01T15:21:08;6.10;45.10
16627;DHT22;8427;52.204;7.202;2023-03-01T15:23:38;6.00;45.20
16627;DHT22;8427;52.204;7.202;2023-03-01T15:26:22;6.00;44.90
16627;DHT22;8427;52.204;7.202;2023-03-01T15:28:53;5.90;45.70
16627;DHT22;8427;52.204;7.202;2023-03-01T15:31:26;6.10;45.70
16627;DHT22;8427;52.204;7.202;2023-03-01T15:34:08;6.10;44.50
16627;DHT22;8427;52.204;7.202;2023-03-01T15:36:41;5.80;45.50
16627;DHT22;8427;52.204;7.202;2023-03-01T15:39:36;5.80;43.90
16627;DHT22;8427;52.204;7.202;2023-03-01T15:42:08;5.90;43.90
16627;DHT22;8427;52.204;7.202;2023-03-01T15:44:39;5.60;43.70
16627;DHT22;8427;52.204;7.202;2023-03-01T15:47:26;5.90;44.90
16627;DHT22;8427;52.204;7.202;2023-03-01T15:49:55;5.80;44.90
16627;DHT22;8427;52.204;7.202;2023-03-01T15:52:27;5.70;44.40
16627;DHT22;8427;52.204;7.202;2023-03-01T15:55:02;5.80;44.90
16627;DHT22;8427;52.204;7.202;2023-03-01T15:57:30;5.90;45.00
16627;DHT22;8427;52.204;7.202;2023-03-01T15:59:58;5.60;46.10
16627;DHT22;8427;52.204;7.202;2023-03-01T16:02:26;5.90;45.50
16627;DHT22;8427;52.204;7.202;2023-03-01T16:04:54;5.60;45.40
16627;DHT22;8427;52.204;7.202;2023-03-01T16:07:23;5.60;46.10